Time;durP1;ratioP1;P1;durP2;ratioP2;P2;SDS_P1;SDS_P2;PMS_P1;PMS_P2;Temp;Humidity;BMP_temperature;BMP_pressure;BME280_temperature;BME280_humidity;BME280_pressure;Samples;Min_cycle;Max_cycle;Signal;HPM_P1;HPM_P2
2023/07/09 00:05:28;;;;;;;6.65;3.33;;;;;;;24.45;50.91;99412.25;7251772;40;20365;31
2023/07/09 00:16:03;;;;;;;5.70;3.40;;;;;;;24.30;52.08;99412.84;7267231;40;20282;31
2023/07/09 00:26:28;;;;;;;4.83;3.30;;;;;;;24.31;51.62;99405.41;7266547;40;20454;31
2023/07/09 00:32:03;;;;;;;5.05;3.40;;;;;;;24.34;50.66;99415.94;7294410;39;20488;31
2023/07/09 00:37:39;;;;;;;4.85;3.40;;;;;;;24.36;50.79;99414.59;7269210;40;20412;31
2023/07/09 00:43:14;;;;;;;7.30;3.40;;;;;;;24.04;53.72;99422.56;7275996;40;20340;31
2023/07/09 00:48:49;;;;;;;6.85;3.55;;;;;;;23.55;53.95;99420.53;7288423;40;20257;31
2023/07/09 00:54:24;;;;;;;5.00;3.35;;;;;;;23.50;53.26;99423.16;7278742;40;20504;31
2023/07/09 00:59:59;;;;;;;4.80;3.37;;;;;;;23.72;53.24;99429.66;7268962;40;20241;31
2023/07/09 01:05:35;;;;;;;5.45;3.40;;;;;;;23.68;53.21;99425.72;7215202;40;20288;31
2023/07/09 01:11:08;;;;;;;5.00;3.20;;;;;;;23.60;53.96;99421.47;7212886;40;21306;31
2023/07/09 01:16:42;;;;;;;5.80;3.28;;;;;;;23.38;53.89;99425.09;7205244;40;20350;31
2023/07/09 01:22:19;;;;;;;7.77;3.83;;;;;;;23.29;54.43;99432.91;7171969;40;20262;31
2023/07/09 01:27:54;;;;;;;4.50;3.30;;;;;;;23.16;55.25;99425.75;7240274;40;20242;31
2023/07/09 01:33:29;;;;;;;5.55;3.45;;;;;;;23.07;55.26;99424.47;7195541;40;20450;31
2023/07/09 01:39:06;;;;;;;5.35;3.45;;;;;;;23.02;55.77;99440.00;7240739;40;20257;31
2023/07/09 01:44:41;;;;;;;5.40;3.33;;;;;;;23.09;55.12;99429.69;7245371;40;20346;31
2023/07/09 01:50:18;;;;;;;5.15;3.55;;;;;;;23.13;54.79;99439.13;7236558;39;20332;31
2023/07/09 01:55:54;;;;;;;5.65;3.65;;;;;;;23.22;54.86;99424.75;7179878;40;20361;31
2023/07/09 02:07:25;;;;;;;6.35;3.50;;;;;;;23.24;55.12;99430.88;7196404;40;20282;31
2023/07/09 02:18:17;;;;;;;4.60;3.60;;;;;;;23.19;55.34;99433.50;7313887;39;21512;31
2023/07/09 02:23:37;;;;;;;4.30;3.60;;;;;;;23.33;55.10;99436.84;7239117;40;20344;31
2023/07/09 02:29:12;;;;;;;4.95;4.00;;;;;;;23.19;54.91;99433.50;7238164;40;20443;31
2023/07/09 02:34:48;;;;;;;6.05;3.90;;;;;;;23.07;55.45;99437.37;7254198;40;20280;31
2023/07/09 02:40:24;;;;;;;6.43;3.75;;;;;;;23.08;55.12;99439.84;7227070;40;20269;31
2023/07/09 02:45:44;;;;;;;6.00;3.62;;;;;;;23.10;55.68;99431.38;7203973;40;20264;31
2023/07/09 02:51:21;;;;;;;5.87;3.90;;;;;;;23.10;55.43;99436.87;7203317;40;20258;31
2023/07/09 02:56:42;;;;;;;7.28;4.12;;;;;;;22.90;57.05;99431.78;7212364;40;20339;31
2023/07/09 03:07:21;;;;;;;6.20;3.90;;;;;;;22.57;57.15;99439.75;7246832;40;20532;31
2023/07/09 03:12:53;;;;;;;6.87;3.90;;;;;;;22.28;57.92;99458.84;7204033;40;20371;31
2023/07/09 03:18:28;;;;;;;5.53;3.70;;;;;;;22.13;58.66;99457.59;7253660;40;20239;31
2023/07/09 03:24:02;;;;;;;6.18;3.72;;;;;;;22.14;58.12;99453.78;7273568;40;20365;31
2023/07/09 03:29:37;;;;;;;7.15;3.83;;;;;;;22.20;57.73;99461.09;7249976;40;20292;31
2023/07/09 03:35:12;;;;;;;7.03;3.95;;;;;;;22.12;58.32;99458.66;7224045;40;20246;31
2023/07/09 03:40:45;;;;;;;8.73;4.40;;;;;;;22.22;58.51;99475.41;7144982;40;20278;31
2023/07/09 03:46:02;;;;;;;7.65;4.32;;;;;;;22.30;57.80;99475.06;7144264;40;20246;31
2023/07/09 03:51:37;;;;;;;6.75;3.75;;;;;;;22.19;58.63;99490.44;7214170;40;20272;31
2023/07/09 03:57:10;;;;;;;9.03;4.23;;;;;;;21.96;59.86;99482.13;7241249;40;20323;31
2023/07/09 04:02:27;;;;;;;8.55;3.83;;;;;;;21.93;58.82;99485.34;7246651;40;20275;31
2023/07/09 04:08:00;;;;;;;8.45;4.30;;;;;;;21.94;59.18;99487.00;7262289;40;20244;31
2023/07/09 04:13:36;;;;;;;4.82;3.75;;;;;;;21.95;59.22;99488.69;7239748;40;20261;31
2023/07/09 04:18:53;;;;;;;6.25;3.90;;;;;;;22.14;58.22;99493.06;7221547;40;20358;31
2023/07/09 04:24:29;;;;;;;6.75;4.60;;;;;;;22.18;58.71;99498.91;7212002;40;20343;31
2023/07/09 04:30:02;;;;;;;4.50;3.70;;;;;;;22.18;59.21;99493.41;7178825;40;20294;31
2023/07/09 04:35:19;;;;;;;7.30;4.32;;;;;;;22.27;58.26;99497.50;7170638;40;20278;31
2023/07/09 04:45:56;;;;;;;7.15;4.15;;;;;;;22.42;58.87;99504.22;7254701;40;20272;31
2023/07/09 04:51:28;;;;;;;7.28;4.40;;;;;;;22.50;58.73;99493.97;7226659;40;20265;31
2023/07/09 04:56:45;;;;;;;7.45;4.20;;;;;;;22.54;59.61;99503.41;7278042;40;20260;31
2023/07/09 05:02:22;;;;;;;5.03;3.53;;;;;;;22.54;60.17;99490.53;7093357;40;20240;31
2023/07/09 05:07:54;;;;;;;6.72;4.25;;;;;;;22.61;60.89;99502.22;7280851;39;20629;31
2023/07/09 05:13:27;;;;;;;7.07;4.00;;;;;;;22.76;60.55;99502.66;7270925;40;20276;31
2023/07/09 05:24:19;;;;;;;7.35;3.95;;;;;;;23.12;60.55;99507.09;7253339;40;21143;31
2023/07/09 05:29:36;;;;;;;5.87;4.00;;;;;;;23.33;60.13;99505.63;7192381;40;20288;31
2023/07/09 05:35:11;;;;;;;5.85;3.75;;;;;;;23.47;59.82;99509.81;7210723;40;20351;31
2023/07/09 05:40:48;;;;;;;9.03;4.20;;;;;;;23.66;60.79;99510.47;7204522;40;20420;31
2023/07/09 05:46:08;;;;;;;5.10;4.25;;;;;;;23.85;59.73;99503.72;7231462;40;20357;31
2023/07/09 05:51:29;;;;;;;7.35;4.55;;;;;;;24.08;57.77;99500.88;7215610;40;20276;31
2023/07/09 05:57:04;;;;;;;6.28;4.32;;;;;;;24.27;57.23;99514.44;7249860;39;20431;31
2023/07/09 06:02:24;;;;;;;9.35;4.60;;;;;;;24.49;58.07;99513.47;7219302;40;20265;31
2023/07/09 06:07:59;;;;;;;6.00;4.15;;;;;;;24.67;57.89;99516.00;7250919;40;20268;31
2023/07/09 06:13:35;;;;;;;5.45;4.25;;;;;;;24.84;58.29;99521.50;7208215;40;20254;31
2023/07/09 06:19:10;;;;;;;5.62;4.28;;;;;;;25.09;56.06;99527.47;7202221;40;20265;31
2023/07/09 06:24:45;;;;;;;7.80;4.45;;;;;;;25.29;56.18;99524.16;7176499;40;20341;31
2023/07/09 06:30:22;;;;;;;7.00;4.30;;;;;;;25.48;56.13;99510.91;7120872;41;21264;31
2023/07/09 06:35:54;;;;;;;8.38;4.80;;;;;;;25.66;53.77;99521.66;7127342;41;20338;31
2023/07/09 06:41:29;;;;;;;6.95;4.25;;;;;;;25.80;53.69;99517.41;7175069;40;20345;31
2023/07/09 06:47:05;;;;;;;8.15;4.45;;;;;;;26.06;53.39;99515.78;7212598;40;20273;31
2023/07/09 06:52:26;;;;;;;8.15;4.20;;;;;;;26.22;53.28;99517.66;7168537;40;20328;31
2023/07/09 06:57:43;;;;;;;7.55;4.43;;;;;;;26.43;52.75;99519.50;7198939;40;20276;31
2023/07/09 07:03:17;;;;;;;7.05;4.18;;;;;;;26.61;52.74;99529.34;7212518;40;20289;31
2023/07/09 07:08:49;;;;;;;6.40;4.30;;;;;;;26.75;52.68;99525.06;7220097;40;21949;31
2023/07/09 07:14:21;;;;;;;7.10;4.28;;;;;;;26.95;53.29;99532.72;7210061;40;20483;31
2023/07/09 07:19:55;;;;;;;7.47;4.10;;;;;;;27.08;52.55;99512.03;7189956;40;20364;31
2023/07/09 07:30:31;;;;;;;4.60;4.05;;;;;;;27.43;51.28;99520.56;7232758;40;21067;31
2023/07/09 07:36:06;;;;;;;6.04;4.18;;;;;;;27.69;50.74;99516.00;7209723;40;20261;31
2023/07/09 07:41:39;;;;;;;5.80;4.53;;;;;;;27.83;51.36;99519.13;7249832;40;20327;31
2023/07/09 07:46:57;;;;;;;6.23;4.40;;;;;;;27.98;50.44;99516.41;7237819;40;20255;31
2023/07/09 07:52:32;;;;;;;9.45;4.60;;;;;;;28.16;50.09;99518.72;7269215;40;20267;31
2023/07/09 07:57:53;;;;;;;6.95;4.47;;;;;;;28.34;50.93;99517.38;7284939;40;20249;31
2023/07/09 08:03:10;;;;;;;6.35;4.40;;;;;;;28.53;49.59;99515.72;7241964;40;20354;31
2023/07/09 08:08:46;;;;;;;8.00;4.50;;;;;;;28.84;49.27;99517.44;7214530;40;20266;31
2023/07/09 08:14:20;;;;;;;5.85;4.28;;;;;;;29.11;48.66;99506.03;7256366;40;20326;31
2023/07/09 08:20:00;;;;;;;8.52;4.45;;;;;;;29.28;48.44;99508.50;7237899;40;20323;31
2023/07/09 08:25:32;;;;;;;5.65;4.28;;;;;;;29.51;48.85;99514.31;7133278;40;20382;31
2023/07/09 08:31:06;;;;;;;5.72;4.25;;;;;;;29.69;47.54;99506.47;7118766;40;20267;31
2023/07/09 08:36:39;;;;;;;8.46;4.64;;;;;;;29.94;47.43;99509.16;7123834;40;20273;31
2023/07/09 08:42:15;;;;;;;7.80;4.40;;;;;;;30.03;46.82;99512.16;7162429;40;21195;31
2023/07/09 08:47:47;;;;;;;6.20;4.20;;;;;;;30.07;45.76;99514.06;7172763;40;20273;31
2023/07/09 08:53:23;;;;;;;6.40;4.23;;;;;;;30.36;45.70;99500.28;7221341;40;20276;31
2023/07/09 08:58:59;;;;;;;6.65;3.97;;;;;;;30.54;44.90;99516.31;7213335;40;20404;31
2023/07/09 09:04:31;;;;;;;7.84;4.60;;;;;;;30.81;45.13;99513.03;7204795;40;20258;31
2023/07/09 09:10:06;;;;;;;7.45;4.30;;;;;;;31.01;44.41;99518.47;7144896;40;20353;31
2023/07/09 09:20:46;;;;;;;6.60;4.50;;;;;;;31.18;44.16;99513.28;7246555;40;20345;31
2023/07/09 09:31:40;;;;;;;6.50;4.32;;;;;;;31.63;42.83;99503.63;7284992;39;20264;31
2023/07/09 09:37:13;;;;;;;6.66;4.16;;;;;;;31.72;42.58;99501.00;7193924;40;20266;31
2023/07/09 09:42:45;;;;;;;5.93;3.65;;;;;;;31.82;41.33;99491.66;7192378;40;20254;31
2023/07/09 09:48:22;;;;;;;5.80;3.65;;;;;;;32.03;40.80;99491.09;7195858;40;21737;31
2023/07/09 09:54:01;;;;;;;7.00;4.17;;;;;;;32.18;40.90;99487.28;7162600;40;20421;31
2023/07/09 09:59:36;;;;;;;5.62;3.58;;;;;;;32.49;38.01;99462.53;7199861;40;20386;31
2023/07/09 10:05:09;;;;;;;5.35;3.60;;;;;;;32.51;38.52;99469.50;7204096;40;20360;31
2023/07/09 10:10:41;;;;;;;6.36;3.38;;;;;;;32.76;37.35;99467.41;7195160;40;20363;31
2023/07/09 10:16:17;;;;;;;4.28;3.62;;;;;;;32.94;35.60;99474.94;7158529;40;21769;31
2023/07/09 10:21:52;;;;;;;4.30;3.50;;;;;;;33.01;35.97;99467.78;7136983;40;20278;31
2023/07/09 10:27:25;;;;;;;8.18;3.68;;;;;;;33.19;35.82;99456.88;7200838;40;20268;31
2023/07/09 10:33:02;;;;;;;6.62;3.95;;;;;;;33.39;36.23;99456.50;7268858;39;20260;31
2023/07/09 10:38:42;;;;;;;5.97;3.72;;;;;;;33.63;35.69;99454.31;7259628;40;20338;31
2023/07/09 10:44:16;;;;;;;5.05;3.60;;;;;;;33.79;33.99;99452.06;7264978;39;20365;31
2023/07/09 10:49:49;;;;;;;4.80;3.37;;;;;;;33.78;34.21;99433.59;7194586;40;20450;31
2023/07/09 10:55:21;;;;;;;4.90;3.30;;;;;;;33.97;33.41;99440.69;7203964;40;20431;31
2023/07/09 11:00:54;;;;;;;6.82;3.47;;;;;;;34.15;34.11;99446.44;7210481;40;20277;31
2023/07/09 11:06:30;;;;;;;7.60;3.15;;;;;;;34.23;32.26;99454.13;7212705;40;20258;31
2023/07/09 11:12:05;;;;;;;6.10;3.63;;;;;;;34.34;31.35;99455.56;7206436;40;20269;31
2023/07/09 11:22:52;;;;;;;8.33;3.90;;;;;;;34.61;31.32;99435.84;7234753;40;20277;31
2023/07/09 11:28:28;;;;;;;4.53;3.20;;;;;;;34.39;31.15;99431.06;7213225;40;20282;31
2023/07/09 11:34:01;;;;;;;5.05;3.47;;;;;;;34.32;32.10;99429.84;7205653;40;20467;31
2023/07/09 11:39:38;;;;;;;4.65;3.42;;;;;;;34.41;31.96;99433.53;7017087;40;21895;31
2023/07/09 11:45:09;;;;;;;6.62;3.40;;;;;;;34.54;32.43;99418.62;7272825;40;20263;31
2023/07/09 11:50:44;;;;;;;5.16;3.86;;;;;;;34.73;31.94;99418.47;7195555;40;20259;31
2023/07/09 11:56:21;;;;;;;9.20;3.40;;;;;;;34.66;31.32;99415.31;7175821;40;20262;31
2023/07/09 12:01:55;;;;;;;5.27;3.87;;;;;;;34.81;31.41;99409.28;7164578;40;20374;31
2023/07/09 12:07:29;;;;;;;5.35;3.67;;;;;;;34.69;32.04;99409.06;7192892;40;20316;31
2023/07/09 12:13:05;;;;;;;4.95;3.60;;;;;;;34.61;31.99;99402.22;7222538;40;20287;31
2023/07/09 12:18:26;;;;;;;6.87;4.03;;;;;;;34.68;31.42;99393.38;7234442;40;20250;31
2023/07/09 12:24:02;;;;;;;4.85;3.62;;;;;;;34.45;32.29;99386.94;7281133;40;20281;31
2023/07/09 12:34:42;;;;;;;4.72;3.45;;;;;;;34.63;32.45;99362.66;7258626;40;20279;31
2023/07/09 12:40:17;;;;;;;6.50;3.80;;;;;;;34.68;30.99;99359.78;7242216;40;20421;31
2023/07/09 12:45:52;;;;;;;5.04;3.78;;;;;;;34.75;31.19;99343.34;7242673;40;20347;31
2023/07/09 12:51:31;;;;;;;5.47;3.70;;;;;;;34.84;31.40;99335.81;7196136;40;20285;31
2023/07/09 12:57:17;;;;;;;5.65;3.40;;;;;;;35.07;31.59;99323.34;7182529;40;20292;31
2023/07/09 13:02:52;;;;;;;7.80;3.50;;;;;;;35.02;30.28;99322.69;7163094;40;20347;31
2023/07/09 13:08:28;;;;;;;7.77;3.78;;;;;;;34.93;30.14;99328.22;7217208;40;20629;31
2023/07/09 13:14:12;;;;;;;5.84;3.48;;;;;;;35.21;30.12;99329.69;7225203;40;20261;31
2023/07/09 13:19:47;;;;;;;4.70;3.70;;;;;;;35.09;29.97;99332.28;7206374;40;20298;31
2023/07/09 13:30:26;;;;;;;6.30;3.50;;;;;;;35.04;29.37;99317.56;7220428;40;21144;31
2023/07/09 13:41:01;;;;;;;4.93;3.13;;;;;;;35.09;29.07;99315.47;7310642;39;20675;31
2023/07/09 13:46:36;;;;;;;5.05;3.12;;;;;;;35.08;28.94;99305.38;7295035;39;20256;31
2023/07/09 13:52:10;;;;;;;6.73;3.57;;;;;;;35.12;29.29;99294.34;7159387;40;20289;31
2023/07/09 13:57:31;;;;;;;6.85;3.62;;;;;;;35.29;28.57;99297.22;7211761;40;20357;31
2023/07/09 14:03:03;;;;;;;6.62;3.80;;;;;;;35.31;29.01;99280.06;7201000;40;21560;31
2023/07/09 14:08:39;;;;;;;6.22;3.40;;;;;;;35.20;29.67;99287.97;7227225;39;20277;31
2023/07/09 14:14:10;;;;;;;5.90;3.35;;;;;;;35.02;28.90;99275.06;7274547;39;20253;31
2023/07/09 14:19:43;;;;;;;5.20;3.60;;;;;;;34.91;29.07;99277.31;7276629;39;21342;31
2023/07/09 14:25:15;;;;;;;6.05;3.35;;;;;;;35.08;28.23;99276.53;7267840;40;21432;31
2023/07/09 14:30:36;;;;;;;5.60;3.30;;;;;;;35.21;28.68;99284.00;7253473;40;20370;31
2023/07/09 14:36:10;;;;;;;4.83;3.40;;;;;;;35.18;28.29;99276.25;7230702;40;20259;31
2023/07/09 14:41:44;;;;;;;4.88;3.52;;;;;;;35.20;29.27;99280.38;7198419;40;20275;31
2023/07/09 14:47:19;;;;;;;4.67;3.20;;;;;;;35.10;29.38;99274.25;7171453;40;20371;31
2023/07/09 14:52:55;;;;;;;5.70;3.30;;;;;;;35.06;29.12;99267.63;7180560;40;20663;31
2023/07/09 14:58:28;;;;;;;4.85;3.58;;;;;;;35.09;28.95;99267.81;7244679;40;20248;31
2023/07/09 15:03:46;;;;;;;6.00;3.55;;;;;;;35.11;29.14;99265.47;7273410;39;21337;31
2023/07/09 15:09:24;;;;;;;4.23;3.37;;;;;;;35.11;29.02;99273.06;7322788;39;20306;31
2023/07/09 15:14:59;;;;;;;7.15;3.60;;;;;;;35.07;29.44;99278.50;7239641;40;20651;31
2023/07/09 15:20:31;;;;;;;6.60;3.62;;;;;;;35.05;29.39;99271.59;7205496;40;21479;31
2023/07/09 15:26:02;;;;;;;6.17;3.63;;;;;;;34.90;29.18;99274.81;7163443;40;20269;31
2023/07/09 15:31:23;;;;;;;4.95;3.60;;;;;;;34.79;29.79;99275.16;7235175;40;20280;31
2023/07/09 15:36:55;;;;;;;4.75;3.20;;;;;;;34.56;29.94;99276.31;7253856;39;20264;31
2023/07/09 15:42:31;;;;;;;4.40;3.40;;;;;;;34.66;30.43;99272.44;7311351;39;21219;31
2023/07/09 15:48:03;;;;;;;4.53;3.35;;;;;;;34.59;31.78;99272.88;7253965;39;20391;31
2023/07/09 15:53:35;;;;;;;5.80;3.70;;;;;;;34.54;32.94;99272.19;7200602;40;20270;31
2023/07/09 15:59:08;;;;;;;6.45;3.45;;;;;;;34.38;34.86;99267.00;7223259;40;20345;31
2023/07/09 16:04:40;;;;;;;6.22;3.50;;;;;;;34.29;34.69;99254.13;7243969;40;20276;31
2023/07/09 16:09:57;;;;;;;5.20;3.50;;;;;;;34.28;34.33;99244.88;7180863;40;21487;31
2023/07/09 16:15:28;;;;;;;6.97;3.80;;;;;;;34.18;34.49;99228.38;7218403;40;20256;31
2023/07/09 16:21:00;;;;;;;5.10;3.90;;;;;;;34.22;34.31;99220.16;7218607;40;20281;31
2023/07/09 16:26:35;;;;;;;7.12;3.70;;;;;;;34.25;34.36;99223.16;7220365;40;20449;31
2023/07/09 16:32:09;;;;;;;6.07;3.90;;;;;;;34.15;35.25;99225.34;7200359;40;21199;31
2023/07/09 16:37:29;;;;;;;5.10;3.60;;;;;;;34.25;35.33;99230.72;7184697;40;21316;31
2023/07/09 16:43:01;;;;;;;6.57;3.67;;;;;;;34.33;35.96;99221.53;7222496;40;21432;31
2023/07/09 16:48:34;;;;;;;5.15;3.55;;;;;;;34.29;36.14;99217.72;7218417;40;21150;31
2023/07/09 16:54:06;;;;;;;5.75;3.60;;;;;;;34.41;35.67;99212.34;7240885;40;20692;31
2023/07/09 16:59:41;;;;;;;5.43;3.80;;;;;;;34.51;34.97;99216.81;7195203;40;20259;31
2023/07/09 17:05:18;;;;;;;7.20;3.60;;;;;;;34.44;33.55;99208.91;7097869;40;21152;31
2023/07/09 17:10:50;;;;;;;6.43;3.77;;;;;;;34.36;34.91;99206.88;7069726;41;20255;31
2023/07/09 17:16:10;;;;;;;8.25;3.60;;;;;;;34.31;34.28;99209.84;7163159;40;20408;31
2023/07/09 17:26:51;;;;;;;4.73;3.37;;;;;;;33.98;33.85;99192.50;7191026;40;20702;31
2023/07/09 17:32:23;;;;;;;6.28;3.75;;;;;;;33.92;35.37;99200.19;7189891;40;21578;31
2023/07/09 17:37:55;;;;;;;5.20;3.60;;;;;;;33.74;34.55;99201.25;7242951;40;21384;31
2023/07/09 17:43:29;;;;;;;6.87;3.70;;;;;;;33.51;36.90;99208.78;7194176;40;20396;31
2023/07/09 17:48:49;;;;;;;6.55;4.18;;;;;;;33.43;36.18;99205.94;7201756;40;20568;31
2023/07/09 17:54:41;;;;;;;9.20;3.67;;;;;;;33.43;37.31;99206.75;7172934;40;20282;31
2023/07/09 18:00:15;;;;;;;5.32;3.70;;;;;;;33.38;35.79;99204.06;7185942;40;20549;31
2023/07/09 18:05:47;;;;;;;7.90;3.70;;;;;;;33.38;37.60;99201.28;6962270;40;20249;31
2023/07/09 18:11:25;;;;;;;7.57;4.00;;;;;;;33.37;35.94;99196.00;7155274;40;20775;31
2023/07/09 18:17:00;;;;;;;5.65;3.62;;;;;;;33.29;37.23;99189.19;7200535;40;20404;31
2023/07/09 18:22:35;;;;;;;6.68;3.90;;;;;;;33.14;37.97;99195.13;7245731;40;20265;31
2023/07/09 18:28:05;;;;;;;7.80;3.80;;;;;;;32.84;39.08;99195.78;7235343;40;20378;31
2023/07/09 18:33:41;;;;;;;6.97;3.70;;;;;;;32.68;41.01;99197.28;7263681;40;20380;31
2023/07/09 18:39:01;;;;;;;5.28;3.62;;;;;;;32.42;41.40;99194.16;7254035;40;20276;31
2023/07/09 18:44:36;;;;;;;7.40;5.00;;;;;;;32.12;41.17;99196.38;7246582;40;20262;31
2023/07/09 18:50:09;;;;;;;6.72;4.60;;;;;;;31.90;42.64;99190.63;7245271;40;20256;31
2023/07/09 18:55:41;;;;;;;6.90;4.32;;;;;;;31.68;42.10;99177.34;7262821;40;20268;31
2023/07/09 19:01:13;;;;;;;6.20;3.64;;;;;;;31.47;43.06;99184.38;7220532;40;20284;31
2023/07/09 19:06:49;;;;;;;5.32;3.75;;;;;;;31.26;43.65;99189.47;7136327;40;20342;31
2023/07/09 19:12:21;;;;;;;9.04;4.52;;;;;;;31.11;44.29;99186.91;7067581;41;20282;31
2023/07/09 19:17:53;;;;;;;6.37;4.70;;;;;;;30.87;44.26;99183.31;7149382;40;21065;31
2023/07/09 19:23:27;;;;;;;6.12;4.30;;;;;;;30.70;44.26;99194.16;7119655;40;20357;31
2023/07/09 19:28:47;;;;;;;5.30;4.00;;;;;;;30.55;43.33;99202.66;7148579;40;21379;31
2023/07/09 19:34:21;;;;;;;7.22;4.80;;;;;;;30.37;43.47;99199.50;7200412;40;20275;31
2023/07/09 19:45:02;;;;;;;6.70;4.10;;;;;;;29.97;42.75;99213.88;7341755;39;21034;31
2023/07/09 19:55:38;;;;;;;6.28;3.50;;;;;;;29.62;42.64;99219.72;7313445;39;20270;31
2023/07/09 20:01:11;;;;;;;4.60;3.60;;;;;;;29.45;42.50;99229.28;7214478;40;20363;31
2023/07/09 20:06:43;;;;;;;7.00;4.55;;;;;;;29.26;43.88;99241.34;7247359;39;20268;31
2023/07/09 20:12:03;;;;;;;4.40;3.30;;;;;;;29.11;43.42;99245.03;7193927;40;20262;31
2023/07/09 20:17:33;;;;;;;6.50;4.15;;;;;;;28.91;42.30;99245.16;7192364;40;20363;31
2023/07/09 20:23:05;;;;;;;6.45;3.90;;;;;;;28.75;43.52;99252.69;7201478;40;20344;31
2023/07/09 20:28:41;;;;;;;6.40;4.14;;;;;;;28.46;46.32;99254.44;7194291;40;20277;31
2023/07/09 20:39:17;;;;;;;7.03;4.32;;;;;;;28.44;46.71;99251.09;7252002;39;21531;31
2023/07/09 20:44:55;;;;;;;6.20;4.28;;;;;;;28.22;47.48;99246.72;7251031;40;21323;31
2023/07/09 20:55:29;;;;;;;7.53;4.75;;;;;;;27.87;48.42;99254.22;7273706;40;22405;31
2023/07/09 21:01:04;;;;;;;6.25;4.40;;;;;;;27.75;49.18;99258.12;7214212;40;20328;31
2023/07/09 21:06:36;;;;;;;6.95;4.45;;;;;;;27.83;49.39;99255.88;7234066;40;20819;31
2023/07/09 21:12:09;;;;;;;8.00;4.30;;;;;;;27.53;49.44;99257.56;7194519;40;20630;31
2023/07/09 21:17:28;;;;;;;7.78;4.72;;;;;;;27.41;49.15;99259.72;7176681;40;20534;31
2023/07/09 21:22:59;;;;;;;7.10;4.20;;;;;;;27.46;49.44;99259.72;7166069;40;20323;31
2023/07/09 21:28:35;;;;;;;6.12;4.85;;;;;;;27.49;49.52;99267.50;7172028;40;20289;31
2023/07/09 21:39:12;;;;;;;10.02;4.80;;;;;;;27.52;48.74;99272.50;7256690;40;21188;31
2023/07/09 21:44:44;;;;;;;6.62;4.20;;;;;;;27.37;50.20;99275.22;7271686;40;20253;31
2023/07/09 21:50:02;;;;;;;10.25;4.40;;;;;;;27.29;48.83;99276.56;7270316;40;20410;31
2023/07/09 21:55:35;;;;;;;8.20;4.03;;;;;;;27.30;49.23;99275.47;7236155;40;20550;31
2023/07/09 22:01:09;;;;;;;6.78;4.05;;;;;;;27.21;49.70;99281.81;7268579;39;20260;31
2023/07/09 22:06:28;;;;;;;8.55;4.30;;;;;;;27.28;49.19;99296.25;7265350;40;20498;31
2023/07/09 22:11:49;;;;;;;5.37;4.15;;;;;;;27.28;48.50;99291.53;7257104;40;21272;31
2023/07/09 22:17:26;;;;;;;7.57;4.43;;;;;;;27.28;48.00;99294.31;7234824;40;21064;31
2023/07/09 22:22:58;;;;;;;5.72;4.32;;;;;;;27.29;47.92;99303.44;7254026;40;21443;31
2023/07/09 22:28:27;;;;;;;8.02;4.30;;;;;;;27.37;47.48;99299.31;7254017;40;21417;31
2023/07/09 22:33:58;;;;;;;7.62;4.52;;;;;;;27.57;46.85;99302.13;7248685;40;21241;31
2023/07/09 22:39:33;;;;;;;7.12;4.10;;;;;;;27.72;46.53;99297.47;7203046;40;20577;31
2023/07/09 22:44:50;;;;;;;8.80;4.60;;;;;;;27.72;47.84;99303.00;7214168;40;20585;31
2023/07/09 22:50:30;;;;;;;7.95;4.70;;;;;;;27.61;48.40;99306.84;7210423;40;20363;31
2023/07/09 22:56:02;;;;;;;6.76;4.08;;;;;;;27.62;47.83;99293.84;7213384;40;20464;31
2023/07/09 23:01:37;;;;;;;6.77;3.93;;;;;;;27.57;47.75;99300.19;7191023;40;20372;31
2023/07/09 23:07:13;;;;;;;7.10;4.30;;;;;;;27.58;47.85;99296.34;7236675;40;20546;31
2023/07/09 23:12:45;;;;;;;14.37;4.40;;;;;;;27.63;48.13;99304.66;7168752;40;20430;31
2023/07/09 23:18:17;;;;;;;6.65;4.03;;;;;;;27.60;48.16;99309.91;7180673;40;20386;31
2023/07/09 23:23:53;;;;;;;7.87;4.40;;;;;;;27.75;47.72;99310.75;7182710;40;20258;31
2023/07/09 23:29:28;;;;;;;7.07;4.03;;;;;;;27.87;48.11;99318.78;7240178;40;20418;31
2023/07/09 23:35:00;;;;;;;5.50;4.10;;;;;;;27.96;47.70;99316.28;7274725;40;20265;31
2023/07/09 23:40:33;;;;;;;6.86;3.94;;;;;;;27.93;47.96;99317.69;7276559;40;20377;31
2023/07/09 23:46:05;;;;;;;5.25;4.00;;;;;;;27.96;47.31;99317.13;7257844;40;20560;31
2023/07/09 23:51:37;;;;;;;5.47;4.23;;;;;;;27.91;48.36;99325.44;7250619;40;20647;31
2023/07/09 23:57:13;;;;;;;6.62;4.32;;;;;;;27.81;48.06;99313.53;7262954;40;20644;31
